Time;durP1;ratioP1;P1;durP2;ratioP2;P2;SDS_P1;SDS_P2;PMS_P1;PMS_P2;Temp;Humidity;BMP_temperature;BMP_pressure;BME280_temperature;BME280_humidity;BME280_pressure;Samples;Min_cycle;Max_cycle;Signal;HPM_P1;HPM_P2
2021/05/12 00:00:15;;;;;;;0.60;0.50;;;10.60;99.90;;;;;;5031194;28;20534;-57
2021/05/12 00:02:41;;;;;;;0.70;0.60;;;10.50;99.90;;;;;;5033704;28;20448;-56
2021/05/12 00:05:10;;;;;;;1.07;0.60;;;10.40;99.90;;;;;;5033280;28;20454;-56
2021/05/12 00:07:36;;;;;;;1.03;0.70;;;10.50;99.90;;;;;;5033411;28;20455;-56
2021/05/12 00:10:04;;;;;;;0.70;0.70;;;10.40;99.90;;;;;;5034231;28;20451;-56
2021/05/12 00:12:32;;;;;;;1.00;0.60;;;10.50;99.90;;;;;;5033974;28;20445;-56
2021/05/12 00:14:58;;;;;;;0.60;0.60;;;10.50;99.90;;;;;;5033681;28;20444;-56
2021/05/12 00:17:27;;;;;;;1.00;0.70;;;10.50;99.90;;;;;;5029705;28;20472;-56
2021/05/12 00:19:57;;;;;;;0.90;0.60;;;10.50;99.90;;;;;;5015054;28;20485;-55
2021/05/12 00:22:34;;;;;;;0.60;0.60;;;10.50;99.90;;;;;;5018394;28;20844;-56
2021/05/12 00:25:01;;;;;;;0.73;0.70;;;10.50;99.90;;;;;;5034331;28;20471;-56
2021/05/12 00:27:28;;;;;;;0.70;0.70;;;10.40;99.90;;;;;;5033822;28;20555;-55
2021/05/12 00:29:55;;;;;;;0.60;0.60;;;10.40;99.90;;;;;;5034444;28;20449;-56
2021/05/12 00:32:21;;;;;;;0.80;0.80;;;10.50;99.90;;;;;;5025105;28;20469;-55
2021/05/12 00:34:48;;;;;;;0.90;0.90;;;10.40;99.90;;;;;;5033809;28;20449;-56
2021/05/12 00:37:15;;;;;;;2.60;1.10;;;10.30;99.90;;;;;;5031811;28;20457;-55
2021/05/12 00:39:41;;;;;;;1.30;1.20;;;10.40;99.90;;;;;;5034169;28;20480;-55
2021/05/12 00:42:08;;;;;;;2.00;1.03;;;10.30;99.90;;;;;;5033693;28;20472;-56
2021/05/12 00:44:34;;;;;;;1.20;0.90;;;10.40;99.90;;;;;;5034224;28;20828;-56
2021/05/12 00:47:05;;;;;;;1.10;0.83;;;10.40;99.90;;;;;;5033582;28;20506;-55
2021/05/12 00:49:32;;;;;;;0.60;0.50;;;10.30;99.90;;;;;;5033962;28;20445;-55
2021/05/12 00:51:59;;;;;;;0.97;0.70;;;10.30;99.90;;;;;;5034062;28;20503;-55
2021/05/12 00:54:26;;;;;;;4.40;0.90;;;10.30;99.90;;;;;;5033602;28;20441;-55
2021/05/12 00:56:52;;;;;;;1.07;0.93;;;10.20;99.90;;;;;;5033080;28;20452;-55
2021/05/12 00:59:20;;;;;;;0.80;0.80;;;10.10;99.90;;;;;;5034073;28;20448;-55
2021/05/12 01:01:47;;;;;;;0.90;0.60;;;10.30;99.90;;;;;;5053370;22;20507;-53
2021/05/12 01:04:14;;;;;;;1.00;0.60;;;10.20;99.90;;;;;;5034661;28;20443;-53
2021/05/12 01:06:41;;;;;;;1.20;0.80;;;10.30;99.90;;;;;;5051117;28;20465;-53
2021/05/12 01:09:09;;;;;;;0.70;0.60;;;10.20;99.90;;;;;;5036935;28;20489;-53
2021/05/12 01:11:36;;;;;;;0.70;0.70;;;10.30;99.90;;;;;;5042055;28;20858;-53
2021/05/12 01:14:04;;;;;;;1.47;0.70;;;10.30;99.90;;;;;;5032914;28;20464;-53
2021/05/12 01:16:31;;;;;;;1.57;0.70;;;10.10;99.90;;;;;;5022263;28;20958;-50
2021/05/12 01:18:58;;;;;;;0.60;0.43;;;10.10;99.90;;;;;;5018641;28;20459;-50
2021/05/12 01:21:25;;;;;;;0.97;0.60;;;10.10;99.90;;;;;;5017217;28;20538;-50
2021/05/12 01:23:52;;;;;;;1.07;0.50;;;9.90;99.90;;;;;;5021255;28;20498;-50
2021/05/12 01:26:20;;;;;;;0.60;0.40;;;10.10;99.90;;;;;;5026506;28;20460;-50
2021/05/12 01:28:49;;;;;;;0.90;0.60;;;10.10;99.90;;;;;;5032722;28;20464;-50
2021/05/12 01:31:18;;;;;;;0.90;0.60;;;10.20;99.90;;;;;;5032967;28;20453;-50
2021/05/12 01:33:45;;;;;;;0.63;0.60;;;10.30;99.90;;;;;;5032686;28;20491;-50
2021/05/12 01:36:12;;;;;;;1.30;0.63;;;10.40;99.90;;;;;;5032188;28;20458;-50
2021/05/12 01:38:42;;;;;;;0.80;0.80;;;10.20;99.90;;;;;;5032347;28;20474;-50
2021/05/12 01:41:09;;;;;;;1.90;0.60;;;10.20;99.90;;;;;;5030872;28;20492;-51
2021/05/12 01:43:36;;;;;;;0.80;0.73;;;10.10;99.90;;;;;;5026720;28;20455;-51
2021/05/12 01:46:04;;;;;;;0.80;0.80;;;10.10;99.90;;;;;;5031700;28;20976;-51
2021/05/12 01:48:31;;;;;;;1.10;0.60;;;10.00;99.90;;;;;;5032449;28;20456;-51
2021/05/12 01:50:58;;;;;;;0.60;0.50;;;10.20;99.90;;;;;;5032084;28;20456;-51
2021/05/12 01:53:25;;;;;;;0.70;0.60;;;10.40;99.90;;;;;;5031514;28;20468;-51
2021/05/12 01:55:53;;;;;;;1.20;0.60;;;10.20;99.90;;;;;;5023137;28;20464;-51
2021/05/12 01:58:21;;;;;;;0.90;0.70;;;10.20;99.90;;;;;;5029933;28;20452;-51
2021/05/12 02:00:50;;;;;;;1.87;0.60;;;10.00;99.90;;;;;;5031400;28;20483;-51
2021/05/12 02:03:17;;;;;;;1.87;0.70;;;10.00;99.90;;;;;;5031278;28;20472;-51
2021/05/12 02:05:45;;;;;;;0.73;0.70;;;10.10;99.90;;;;;;5031713;28;20807;-51
2021/05/12 02:08:13;;;;;;;0.80;0.70;;;10.00;99.90;;;;;;5032312;28;20448;-51
2021/05/12 02:10:43;;;;;;;0.60;0.60;;;9.90;99.90;;;;;;5032280;28;20452;-51
2021/05/12 02:13:10;;;;;;;0.60;0.60;;;10.00;99.90;;;;;;5031958;28;20468;-52
2021/05/12 02:15:37;;;;;;;1.83;0.50;;;10.10;99.90;;;;;;5030331;28;20969;-52
2021/05/12 02:18:04;;;;;;;0.70;0.60;;;10.00;99.90;;;;;;5031029;28;20879;-52
2021/05/12 02:20:33;;;;;;;1.67;0.60;;;9.90;99.90;;;;;;5021050;28;20506;-51
2021/05/12 02:23:01;;;;;;;1.43;0.50;;;9.90;99.90;;;;;;5026889;28;20492;-51
2021/05/12 02:25:28;;;;;;;0.60;0.50;;;9.80;99.90;;;;;;5031171;28;20460;-51
2021/05/12 02:27:55;;;;;;;0.80;0.60;;;9.80;99.90;;;;;;5031451;28;20548;-51
2021/05/12 02:30:23;;;;;;;0.60;0.60;;;9.90;99.90;;;;;;5024076;28;20453;-51
2021/05/12 02:32:51;;;;;;;0.63;0.50;;;9.90;99.90;;;;;;5029233;28;20471;-51
2021/05/12 02:35:19;;;;;;;0.80;0.67;;;9.80;99.90;;;;;;5031232;28;20458;-51
2021/05/12 02:37:46;;;;;;;0.70;0.50;;;9.80;99.90;;;;;;5031200;28;20456;-51
2021/05/12 02:40:15;;;;;;;0.60;0.60;;;9.70;99.90;;;;;;5028242;28;20538;-51
2021/05/12 02:42:42;;;;;;;0.70;0.50;;;9.60;99.90;;;;;;5020610;28;20826;-51
2021/05/12 02:45:10;;;;;;;0.67;0.63;;;9.70;99.90;;;;;;5031696;28;20834;-51
2021/05/12 02:47:38;;;;;;;1.00;0.67;;;9.90;99.90;;;;;;5031407;28;20466;-51
2021/05/12 02:50:07;;;;;;;0.60;0.50;;;10.00;99.90;;;;;;5031704;28;20460;-51
2021/05/12 02:52:33;;;;;;;0.60;0.50;;;10.00;99.90;;;;;;5050742;28;20474;-51
2021/05/12 02:55:00;;;;;;;0.60;0.50;;;9.90;99.90;;;;;;5050236;28;20457;-51
2021/05/12 02:57:27;;;;;;;0.70;0.60;;;9.80;99.90;;;;;;5031528;28;20467;-51
2021/05/12 02:59:54;;;;;;;1.10;0.50;;;9.70;99.90;;;;;;5030904;28;20492;-51
2021/05/12 03:02:20;;;;;;;0.80;0.50;;;9.70;99.90;;;;;;5031484;28;20487;-51
2021/05/12 03:04:48;;;;;;;0.60;0.40;;;9.70;99.90;;;;;;5031766;28;20803;-51
2021/05/12 03:07:15;;;;;;;0.70;0.50;;;9.60;99.90;;;;;;5041847;28;20452;-52
2021/05/12 03:09:41;;;;;;;0.60;0.50;;;9.90;99.90;;;;;;5031524;28;20467;-51
2021/05/12 03:12:08;;;;;;;1.07;0.50;;;9.90;99.90;;;;;;5031254;28;20893;-51
2021/05/12 03:14:35;;;;;;;0.60;0.40;;;9.80;99.90;;;;;;5031032;28;20463;-51
2021/05/12 03:17:01;;;;;;;1.33;0.50;;;9.80;99.90;;;;;;5031428;28;20803;-51
2021/05/12 03:19:28;;;;;;;0.87;0.40;;;9.70;99.90;;;;;;5036635;28;20447;-51
2021/05/12 03:21:57;;;;;;;2.50;0.63;;;9.80;99.90;;;;;;5032851;28;20494;-51
2021/05/12 03:24:24;;;;;;;1.37;0.60;;;9.60;99.90;;;;;;5019148;28;20448;-51
2021/05/12 03:26:50;;;;;;;0.60;0.50;;;9.50;99.90;;;;;;5031175;28;20484;-51
2021/05/12 03:29:17;;;;;;;0.70;0.60;;;9.60;99.90;;;;;;5031343;28;20453;-51
2021/05/12 03:31:43;;;;;;;1.10;0.60;;;9.60;99.90;;;;;;5031240;28;20469;-51
2021/05/12 03:34:10;;;;;;;0.70;0.53;;;9.50;99.90;;;;;;5037173;28;20455;-50
2021/05/12 03:36:36;;;;;;;0.60;0.50;;;9.70;99.90;;;;;;5034194;28;20455;-51
2021/05/12 03:39:05;;;;;;;1.00;0.70;;;9.50;99.90;;;;;;5027880;28;20452;-51
2021/05/12 03:41:31;;;;;;;0.70;0.63;;;9.70;99.90;;;;;;5015119;28;20492;-51
2021/05/12 03:43:58;;;;;;;0.60;0.60;;;9.60;99.90;;;;;;5016240;28;20530;-52
2021/05/12 03:46:24;;;;;;;0.60;0.50;;;9.50;99.90;;;;;;5014999;28;21217;-51
2021/05/12 03:48:51;;;;;;;1.47;0.57;;;9.50;99.90;;;;;;5041167;28;20455;-52
2021/05/12 03:51:17;;;;;;;0.60;0.50;;;9.50;99.90;;;;;;5054912;28;20456;-51
2021/05/12 03:53:44;;;;;;;0.60;0.50;;;9.60;99.90;;;;;;5032364;28;20465;-51
2021/05/12 03:56:11;;;;;;;0.60;0.50;;;9.50;99.90;;;;;;5023184;28;20461;-51
2021/05/12 03:58:38;;;;;;;0.70;0.60;;;9.50;99.90;;;;;;5028526;28;20860;-51
2021/05/12 04:01:04;;;;;;;1.17;0.60;;;9.60;99.90;;;;;;5034340;28;21023;-51
2021/05/12 04:03:31;;;;;;;1.60;1.00;;;9.50;99.90;;;;;;5050809;28;20474;-50
2021/05/12 04:05:57;;;;;;;2.47;0.87;;;9.50;99.90;;;;;;5054256;28;20850;-51
2021/05/12 04:08:25;;;;;;;0.77;0.70;;;9.50;99.90;;;;;;5044601;28;20451;-51
2021/05/12 04:10:52;;;;;;;0.60;0.53;;;9.60;99.90;;;;;;5039942;28;20451;-51
2021/05/12 04:13:20;;;;;;;0.87;0.60;;;9.60;99.90;;;;;;5054568;28;20474;-50
2021/05/12 04:15:47;;;;;;;0.60;0.50;;;9.60;99.90;;;;;;5037007;28;20467;-50
2021/05/12 04:18:14;;;;;;;1.87;0.70;;;9.50;99.90;;;;;;5033116;28;20460;-50
2021/05/12 04:20:41;;;;;;;1.13;0.60;;;9.40;99.90;;;;;;5033134;28;20483;-51
2021/05/12 04:23:07;;;;;;;0.60;0.60;;;9.60;99.90;;;;;;5034895;28;20468;-51
2021/05/12 04:25:34;;;;;;;0.70;0.70;;;9.60;99.90;;;;;;5041945;28;20871;-51
2021/05/12 04:28:01;;;;;;;0.90;0.90;;;9.60;99.90;;;;;;5034531;28;20498;-51
2021/05/12 04:30:31;;;;;;;2.50;1.30;;;9.80;99.90;;;;;;5035508;28;20460;-51
2021/05/12 04:32:59;;;;;;;2.03;1.33;;;10.00;99.90;;;;;;5034362;28;20499;-51
2021/05/12 04:35:26;;;;;;;1.03;0.97;;;10.00;99.90;;;;;;5033990;28;20440;-51
2021/05/12 04:37:53;;;;;;;0.70;0.60;;;10.10;99.90;;;;;;5029876;28;20463;-52
2021/05/12 04:40:21;;;;;;;0.80;0.70;;;10.00;99.90;;;;;;5029415;28;20488;-51
2021/05/12 04:42:47;;;;;;;1.47;0.73;;;10.10;99.90;;;;;;5029485;28;20483;-51
2021/05/12 04:45:15;;;;;;;0.77;0.77;;;10.00;99.90;;;;;;5033366;28;21156;-51
2021/05/12 04:47:54;;;;;;;0.93;0.73;;;9.90;99.90;;;;;;5035490;28;20533;-51
2021/05/12 04:50:21;;;;;;;0.70;0.50;;;9.90;99.90;;;;;;5014138;28;20445;-51
2021/05/12 04:52:48;;;;;;;0.60;0.50;;;10.00;99.90;;;;;;5014058;28;20504;-51
2021/05/12 04:55:14;;;;;;;0.93;0.60;;;10.00;99.90;;;;;;5015991;28;20445;-51
2021/05/12 04:57:41;;;;;;;1.87;0.70;;;10.00;99.90;;;;;;5031463;28;20456;-51
2021/05/12 05:00:09;;;;;;;1.10;0.70;;;9.90;99.90;;;;;;5045214;28;20480;-51
2021/05/12 05:02:35;;;;;;;2.87;0.80;;;9.90;99.90;;;;;;5032782;28;20476;-51
2021/05/12 05:05:03;;;;;;;0.70;0.70;;;9.90;99.90;;;;;;5053108;28;20949;-51
2021/05/12 05:07:29;;;;;;;1.13;0.83;;;10.00;99.90;;;;;;5040798;28;20444;-51
2021/05/12 05:09:56;;;;;;;1.83;0.90;;;10.00;99.90;;;;;;5033601;28;20498;-51
2021/05/12 05:12:22;;;;;;;1.60;1.33;;;9.90;99.90;;;;;;5033240;28;20499;-51
2021/05/12 05:14:48;;;;;;;3.10;1.70;;;9.90;99.90;;;;;;5032750;28;21129;-50
2021/05/12 05:17:16;;;;;;;1.13;1.03;;;9.90;99.90;;;;;;5032842;28;20456;-51
2021/05/12 05:19:45;;;;;;;0.97;0.97;;;9.70;99.90;;;;;;5033174;28;20457;-51
2021/05/12 05:22:14;;;;;;;1.07;0.97;;;9.70;99.90;;;;;;5037751;28;20465;-51
2021/05/12 05:24:43;;;;;;;1.47;1.03;;;9.60;99.90;;;;;;5033062;28;20472;-51
2021/05/12 05:27:10;;;;;;;1.20;1.00;;;9.60;99.90;;;;;;5031332;28;20506;-51
2021/05/12 05:29:37;;;;;;;0.83;0.70;;;9.50;99.90;;;;;;5033074;28;20452;-51
2021/05/12 05:32:04;;;;;;;1.37;0.80;;;9.70;99.90;;;;;;5030352;28;20461;-51
2021/05/12 05:34:30;;;;;;;3.33;0.50;;;9.70;99.90;;;;;;5042975;28;20509;-51
2021/05/12 05:36:57;;;;;;;0.90;0.70;;;9.50;99.90;;;;;;5026173;28;20453;-51
2021/05/12 05:39:24;;;;;;;0.80;0.60;;;9.60;99.90;;;;;;5015969;28;20453;-50
2021/05/12 05:41:54;;;;;;;0.80;0.60;;;9.60;99.90;;;;;;5029759;28;20499;-51
2021/05/12 05:44:20;;;;;;;1.20;0.70;;;9.50;99.90;;;;;;5024904;28;20472;-50
2021/05/12 05:46:47;;;;;;;0.67;0.60;;;9.40;99.90;;;;;;5031327;28;20476;-49
2021/05/12 05:49:13;;;;;;;0.80;0.70;;;9.40;99.90;;;;;;5031088;28;20496;-50
2021/05/12 05:51:41;;;;;;;0.60;0.60;;;9.40;99.90;;;;;;5026864;28;20998;-50
2021/05/12 05:54:07;;;;;;;1.20;0.80;;;9.60;99.90;;;;;;5030651;28;20445;-51
2021/05/12 05:56:35;;;;;;;1.07;0.67;;;9.40;99.90;;;;;;5027275;28;20490;-51
2021/05/12 05:59:02;;;;;;;1.00;0.80;;;9.40;99.90;;;;;;5026622;28;20468;-51
2021/05/12 06:01:28;;;;;;;2.10;0.90;;;9.50;99.90;;;;;;5027853;28;20488;-51
2021/05/12 06:03:54;;;;;;;1.07;0.80;;;9.70;99.90;;;;;;5026923;28;20464;-51
2021/05/12 06:06:21;;;;;;;1.00;0.70;;;9.80;99.90;;;;;;5027689;28;20830;-51
2021/05/12 06:08:47;;;;;;;1.63;0.90;;;9.90;99.90;;;;;;5027059;28;20519;-51
2021/05/12 06:11:14;;;;;;;0.90;0.70;;;10.00;99.90;;;;;;5027560;28;20857;-51
2021/05/12 06:13:41;;;;;;;1.23;0.70;;;10.10;99.90;;;;;;5027366;28;21005;-51
2021/05/12 06:16:08;;;;;;;1.10;1.00;;;9.80;99.90;;;;;;5028999;28;20851;-51
2021/05/12 06:18:34;;;;;;;1.10;0.83;;;9.70;99.90;;;;;;5030963;28;20463;-51
2021/05/12 06:21:01;;;;;;;0.83;0.70;;;9.70;99.90;;;;;;5030137;28;21001;-51
2021/05/12 06:23:28;;;;;;;1.17;0.80;;;9.60;99.90;;;;;;5029256;28;20474;-51
2021/05/12 06:25:54;;;;;;;0.83;0.60;;;9.50;99.90;;;;;;5031294;28;20459;-51
2021/05/12 06:28:21;;;;;;;0.70;0.60;;;9.80;99.90;;;;;;5030595;28;20468;-51
2021/05/12 06:30:50;;;;;;;0.70;0.70;;;9.80;99.90;;;;;;5031408;28;20503;-51
2021/05/12 06:33:17;;;;;;;7.43;0.80;;;9.90;99.90;;;;;;5031488;28;20480;-51
2021/05/12 06:35:43;;;;;;;0.70;0.50;;;9.80;99.90;;;;;;5031617;28;20459;-51
2021/05/12 06:38:10;;;;;;;1.57;0.60;;;9.60;99.90;;;;;;5031140;28;20638;-51
2021/05/12 06:40:37;;;;;;;1.23;0.60;;;9.60;99.90;;;;;;5030080;28;21009;-51
2021/05/12 06:43:04;;;;;;;1.60;1.00;;;9.70;99.90;;;;;;5031663;28;20868;-51
2021/05/12 06:45:31;;;;;;;1.30;0.70;;;9.90;99.90;;;;;;5031751;28;20460;-51
2021/05/12 06:47:58;;;;;;;0.90;0.80;;;10.00;99.90;;;;;;5031637;28;20453;-51
2021/05/12 06:50:25;;;;;;;0.60;0.50;;;10.00;99.90;;;;;;5031261;28;20443;-51
2021/05/12 06:52:53;;;;;;;0.80;0.60;;;10.00;99.90;;;;;;5030551;28;20472;-51
2021/05/12 06:55:19;;;;;;;1.00;0.60;;;10.10;99.90;;;;;;5031211;28;20535;-51
2021/05/12 06:57:46;;;;;;;1.20;0.70;;;10.00;99.90;;;;;;5031588;28;20483;-51
2021/05/12 07:00:13;;;;;;;1.57;0.80;;;10.00;99.90;;;;;;5031114;28;20452;-51
2021/05/12 07:02:40;;;;;;;1.10;0.90;;;10.00;99.90;;;;;;5074526;22;20501;-54
2021/05/12 07:05:09;;;;;;;0.80;0.80;;;10.10;99.90;;;;;;5071088;28;20918;-54
2021/05/12 07:07:35;;;;;;;0.87;0.70;;;10.20;99.90;;;;;;5070567;28;20450;-54
2021/05/12 07:10:02;;;;;;;1.00;0.90;;;10.00;99.90;;;;;;5074299;28;20446;-54
2021/05/12 07:12:28;;;;;;;1.70;0.90;;;10.00;99.90;;;;;;5075835;28;20466;-54
2021/05/12 07:14:55;;;;;;;1.27;1.00;;;9.90;99.90;;;;;;5075779;28;20439;-54
2021/05/12 07:17:21;;;;;;;1.30;1.20;;;9.90;99.90;;;;;;5075433;28;20447;-54
2021/05/12 07:19:48;;;;;;;1.30;0.90;;;9.90;99.90;;;;;;5075684;28;20449;-54
2021/05/12 07:22:15;;;;;;;1.03;0.93;;;9.80;99.90;;;;;;5075012;28;20482;-54
2021/05/12 07:24:43;;;;;;;1.20;0.90;;;10.00;99.90;;;;;;5075187;28;20857;-54
2021/05/12 07:27:09;;;;;;;2.30;1.50;;;10.10;99.90;;;;;;5075256;28;20515;-54
2021/05/12 07:29:36;;;;;;;1.93;0.90;;;10.20;99.90;;;;;;5075259;28;20516;-54
2021/05/12 07:32:02;;;;;;;1.57;1.00;;;10.40;99.90;;;;;;5081283;28;20463;-54
2021/05/12 07:34:29;;;;;;;1.10;0.97;;;10.30;99.90;;;;;;5079739;28;20450;-54
2021/05/12 07:36:55;;;;;;;2.13;1.20;;;10.10;99.90;;;;;;5074260;28;20447;-54
2021/05/12 07:39:23;;;;;;;1.00;0.80;;;10.20;99.90;;;;;;5074881;28;20443;-54
2021/05/12 07:41:51;;;;;;;1.93;1.10;;;10.10;99.90;;;;;;5074956;28;20493;-54
2021/05/12 07:44:17;;;;;;;1.60;1.00;;;10.20;99.90;;;;;;5075227;28;20549;-55
2021/05/12 07:46:45;;;;;;;1.00;0.90;;;10.40;99.90;;;;;;5074410;28;20450;-54
2021/05/12 07:49:11;;;;;;;2.23;1.00;;;10.30;99.90;;;;;;5074873;28;20457;-56
2021/05/12 07:51:38;;;;;;;2.37;1.10;;;10.40;99.90;;;;;;5074473;28;20477;-57
2021/05/12 07:54:05;;;;;;;1.23;0.97;;;10.40;99.90;;;;;;5074233;28;20953;-56
2021/05/12 07:56:32;;;;;;;1.77;1.00;;;10.50;99.90;;;;;;5074341;28;20455;-56
2021/05/12 07:58:58;;;;;;;1.00;0.80;;;10.70;99.90;;;;;;5075061;28;20450;-57
2021/05/12 08:01:28;;;;;;;1.50;0.97;;;10.70;99.90;;;;;;5073976;28;20474;-56
2021/05/12 08:03:55;;;;;;;1.30;1.00;;;10.70;99.90;;;;;;5074782;28;20446;-56
2021/05/12 08:06:21;;;;;;;3.37;1.10;;;10.70;99.90;;;;;;5073823;28;20443;-57
2021/05/12 08:08:48;;;;;;;1.93;1.17;;;10.90;99.90;;;;;;5074992;28;20438;-57
2021/05/12 08:11:14;;;;;;;1.30;1.20;;;11.10;99.90;;;;;;5074322;28;20442;-57
2021/05/12 08:13:42;;;;;;;1.70;1.20;;;11.20;99.90;;;;;;5073720;28;20475;-56
2021/05/12 08:16:08;;;;;;;1.27;1.10;;;11.20;99.90;;;;;;5070454;28;22090;-57
2021/05/12 08:18:35;;;;;;;1.87;1.10;;;11.20;99.90;;;;;;5073670;28;20439;-57
2021/05/12 08:21:02;;;;;;;1.60;1.20;;;11.30;99.90;;;;;;5072235;28;21067;-57
2021/05/12 08:23:29;;;;;;;1.17;1.07;;;11.40;99.90;;;;;;5074052;28;20498;-57
2021/05/12 08:25:55;;;;;;;1.20;0.90;;;11.40;99.90;;;;;;5073474;28;20447;-57
2021/05/12 08:28:22;;;;;;;2.20;1.20;;;11.20;99.90;;;;;;5073880;28;20439;-56
2021/05/12 08:30:50;;;;;;;2.30;1.10;;;11.30;99.90;;;;;;5074465;28;20443;-56
2021/05/12 08:33:17;;;;;;;1.20;0.80;;;11.40;99.90;;;;;;5074213;28;20508;-56
2021/05/12 08:35:45;;;;;;;1.00;0.73;;;11.40;99.90;;;;;;5074015;28;20451;-57
2021/05/12 08:38:15;;;;;;;2.97;1.00;;;11.60;99.90;;;;;;5073141;28;20455;-56
2021/05/12 08:40:42;;;;;;;1.20;0.77;;;11.70;99.90;;;;;;5072692;28;20599;-57
2021/05/12 08:43:09;;;;;;;1.20;1.10;;;11.70;99.90;;;;;;5073397;28;20478;-57
2021/05/12 08:45:38;;;;;;;1.50;1.40;;;11.60;99.90;;;;;;5073787;28;20442;-57
2021/05/12 08:48:11;;;;;;;1.50;1.40;;;11.80;99.90;;;;;;5073986;28;20504;-57
2021/05/12 08:50:38;;;;;;;1.03;0.97;;;11.90;99.90;;;;;;5073543;28;20468;-57
2021/05/12 08:53:05;;;;;;;1.93;1.30;;;12.00;99.90;;;;;;5073489;28;20478;-57
2021/05/12 08:55:33;;;;;;;1.30;1.20;;;12.00;99.90;;;;;;5072854;28;20824;-57
2021/05/12 08:58:00;;;;;;;1.63;0.90;;;12.00;99.90;;;;;;5073232;28;20461;-57
2021/05/12 09:00:27;;;;;;;3.70;0.90;;;11.90;99.90;;;;;;5073072;28;20446;-56
2021/05/12 09:02:53;;;;;;;1.67;1.00;;;12.20;99.90;;;;;;5073183;28;20481;-57
2021/05/12 09:05:21;;;;;;;1.00;0.80;;;12.00;99.90;;;;;;5073438;28;20446;-57
2021/05/12 09:07:48;;;;;;;2.97;1.13;;;11.70;99.90;;;;;;5073295;28;20455;-57
2021/05/12 09:10:16;;;;;;;0.80;0.77;;;11.80;99.90;;;;;;5073454;28;20453;-57
2021/05/12 09:12:44;;;;;;;1.00;0.90;;;12.00;99.90;;;;;;5073115;28;20544;-57
2021/05/12 09:15:15;;;;;;;4.53;1.47;;;12.00;99.90;;;;;;5073143;28;20824;-57
2021/05/12 09:17:42;;;;;;;0.77;0.77;;;11.90;99.90;;;;;;5072742;28;20956;-57
2021/05/12 09:20:31;;;;;;;1.10;0.70;;;12.00;99.90;;;;;;5073515;28;20507;-57
2021/05/12 09:23:12;;;;;;;0.90;0.90;;;12.00;99.90;;;;;;5077262;28;20477;-57
2021/05/12 09:25:40;;;;;;;0.80;0.80;;;12.10;99.90;;;;;;5072690;28;20451;-57
2021/05/12 09:28:12;;;;;;;1.17;0.80;;;12.00;99.90;;;;;;5073329;28;20451;-56
2021/05/12 09:30:39;;;;;;;1.20;0.90;;;12.10;99.90;;;;;;5073386;28;20500;-57
2021/05/12 09:33:06;;;;;;;0.73;0.73;;;12.20;99.90;;;;;;5072879;28;20886;-57
2021/05/12 09:35:41;;;;;;;1.33;0.77;;;12.20;99.90;;;;;;5072739;28;20446;-57
2021/05/12 09:38:19;;;;;;;3.83;0.80;;;12.30;99.90;;;;;;5072913;28;20451;-57
2021/05/12 09:40:46;;;;;;;2.50;1.00;;;12.30;99.90;;;;;;5072663;28;20482;-56
2021/05/12 09:43:15;;;;;;;0.97;0.80;;;12.50;99.90;;;;;;5072015;28;20467;-57
2021/05/12 09:45:41;;;;;;;0.80;0.70;;;12.70;99.90;;;;;;5072025;28;20454;-56
2021/05/12 09:48:08;;;;;;;0.90;0.90;;;12.50;99.90;;;;;;5072445;28;20614;-56
2021/05/12 09:50:37;;;;;;;1.30;1.20;;;12.50;99.90;;;;;;5072977;28;20457;-56
2021/05/12 09:53:05;;;;;;;1.77;0.90;;;12.50;99.90;;;;;;5072697;28;20502;-56
2021/05/12 09:55:36;;;;;;;1.93;0.87;;;12.50;99.90;;;;;;5072312;28;20446;-56
2021/05/12 09:58:03;;;;;;;3.73;0.80;;;12.40;99.90;;;;;;5072382;28;20450;-56
2021/05/12 10:00:31;;;;;;;1.00;0.70;;;12.50;99.90;;;;;;5072357;28;20512;-56
2021/05/12 10:02:58;;;;;;;0.97;0.70;;;12.80;99.90;;;;;;5072422;28;21014;-56
2021/05/12 10:05:25;;;;;;;1.17;0.80;;;12.60;99.90;;;;;;5072098;28;20445;-56
2021/05/12 10:07:53;;;;;;;1.10;1.00;;;12.90;99.90;;;;;;5072331;28;20446;-54
2021/05/12 10:10:37;;;;;;;0.90;0.67;;;13.00;99.90;;;;;;5071884;28;20446;-56
2021/05/12 10:13:03;;;;;;;2.27;0.77;;;13.20;99.90;;;;;;5071989;28;20877;-57
2021/05/12 10:15:30;;;;;;;3.03;1.10;;;13.50;99.90;;;;;;5072115;28;20439;-57
2021/05/12 10:17:57;;;;;;;1.23;0.93;;;13.60;99.90;;;;;;5072655;28;20439;-56
2021/05/12 10:20:24;;;;;;;3.40;0.87;;;13.50;99.90;;;;;;5071566;28;21005;-56
2021/05/12 10:22:54;;;;;;;2.37;1.10;;;13.40;99.90;;;;;;5072146;28;20926;-56
2021/05/12 10:25:22;;;;;;;1.43;1.10;;;13.20;99.90;;;;;;5072214;28;20457;-57
2021/05/12 10:27:50;;;;;;;2.30;1.00;;;13.20;99.90;;;;;;5071922;28;20546;-56
2021/05/12 10:30:17;;;;;;;1.00;0.90;;;13.30;99.90;;;;;;5072233;28;20447;-56
2021/05/12 10:32:48;;;;;;;2.50;1.40;;;13.40;99.90;;;;;;5072004;28;20842;-56
2021/05/12 10:35:15;;;;;;;3.23;1.13;;;13.40;99.90;;;;;;5052010;28;20498;-56
2021/05/12 10:37:43;;;;;;;0.93;0.90;;;13.40;99.90;;;;;;5052044;28;20981;-56
2021/05/12 10:40:17;;;;;;;4.60;1.10;;;13.50;99.90;;;;;;5051951;28;20448;-56
2021/05/12 10:42:53;;;;;;;1.57;0.80;;;13.40;99.90;;;;;;5071269;28;20485;-56
2021/05/12 10:45:34;;;;;;;1.33;1.07;;;13.10;99.90;;;;;;5071196;28;20504;-56
2021/05/12 10:48:01;;;;;;;1.43;1.33;;;13.20;99.90;;;;;;5071472;28;20443;-56
2021/05/12 10:50:44;;;;;;;2.23;0.90;;;13.20;99.90;;;;;;5071833;28;20454;-56
2021/05/12 10:53:21;;;;;;;0.90;0.90;;;13.20;99.90;;;;;;5071714;28;20466;-56
2021/05/12 10:56:06;;;;;;;1.37;1.27;;;13.20;99.90;;;;;;5071679;28;20833;-56
2021/05/12 10:58:38;;;;;;;1.20;1.10;;;13.10;99.90;;;;;;5071663;28;20824;-57
2021/05/12 11:01:07;;;;;;;2.03;1.67;;;13.20;99.90;;;;;;5071544;28;20903;-56
2021/05/12 11:04:13;;;;;;;2.70;1.33;;;13.40;99.90;;;;;;5071237;28;20485;-56
2021/05/12 11:07:00;;;;;;;1.10;1.10;;;13.50;99.90;;;;;;5071577;28;20519;-57
2021/05/12 11:09:45;;;;;;;1.30;1.20;;;13.50;99.90;;;;;;5071524;28;20450;-56
2021/05/12 11:12:19;;;;;;;1.53;1.23;;;13.70;99.90;;;;;;5072235;28;20463;-56
2021/05/12 11:15:00;;;;;;;1.43;1.20;;;13.90;99.90;;;;;;5071580;28;20984;-56
2021/05/12 11:17:50;;;;;;;2.60;1.40;;;14.00;99.90;;;;;;5071624;28;20997;-56
2021/05/12 11:20:26;;;;;;;1.60;1.50;;;14.10;99.90;;;;;;5066214;28;20871;-56
2021/05/12 11:22:55;;;;;;;7.30;1.67;;;14.30;99.90;;;;;;5071421;28;20470;-56
2021/05/12 11:25:31;;;;;;;3.40;1.40;;;14.40;99.90;;;;;;5071220;28;20492;-57
2021/05/12 11:33:49;;;;;;;3.23;1.03;;;14.50;99.90;;;;;;5057698;28;20454;-56
2021/05/12 11:36:18;;;;;;;1.37;1.27;;;14.60;99.90;;;;;;5070895;28;20952;-57
2021/05/12 11:38:45;;;;;;;1.90;1.50;;;14.70;99.90;;;;;;5071467;28;20450;-57
2021/05/12 11:41:15;;;;;;;3.03;1.30;;;14.80;99.90;;;;;;5071157;28;20501;-56
2021/05/12 11:43:44;;;;;;;1.53;1.20;;;14.30;99.90;;;;;;5071227;28;20976;-56
2021/05/12 11:46:13;;;;;;;1.37;1.27;;;14.20;99.90;;;;;;5071029;28;20889;-56
2021/05/12 11:48:42;;;;;;;1.50;1.40;;;13.70;99.90;;;;;;5070912;28;20504;-57
2021/05/12 11:51:09;;;;;;;1.83;1.30;;;13.50;99.90;;;;;;5070920;28;20451;-57
2021/05/12 11:53:38;;;;;;;3.17;1.30;;;13.50;99.90;;;;;;5071012;28;20471;-57
2021/05/12 11:56:06;;;;;;;1.83;1.20;;;13.50;99.90;;;;;;5072469;28;20458;-57
2021/05/12 11:58:32;;;;;;;2.03;1.40;;;13.40;99.90;;;;;;5075082;28;20508;-57
2021/05/12 12:01:07;;;;;;;2.47;1.40;;;13.50;99.90;;;;;;5074866;28;20478;-57
2021/05/12 12:03:34;;;;;;;1.50;1.40;;;13.60;99.90;;;;;;5074418;28;20484;-57
2021/05/12 12:06:05;;;;;;;1.83;1.33;;;13.60;99.90;;;;;;5074462;28;20505;-54
2021/05/12 12:08:33;;;;;;;2.20;1.57;;;13.70;99.90;;;;;;5074772;28;20461;-55
2021/05/12 12:11:13;;;;;;;2.10;1.43;;;13.90;99.90;;;;;;5074327;28;20451;-55
2021/05/12 12:13:40;;;;;;;1.70;1.43;;;13.90;99.90;;;;;;5074666;28;20477;-54
2021/05/12 12:16:08;;;;;;;1.20;1.10;;;13.80;99.90;;;;;;5074246;28;20948;-57
2021/05/12 12:18:36;;;;;;;1.50;1.40;;;13.80;99.90;;;;;;5073900;28;20450;-57
2021/05/12 12:21:04;;;;;;;4.33;1.10;;;14.00;99.90;;;;;;5073014;28;20490;-56
2021/05/12 12:23:32;;;;;;;1.20;1.10;;;14.10;99.90;;;;;;5073985;28;20471;-57
2021/05/12 12:26:15;;;;;;;1.90;1.00;;;13.90;99.90;;;;;;5074023;28;20461;-57
2021/05/12 12:28:44;;;;;;;1.30;1.20;;;14.00;99.90;;;;;;5074072;28;20449;-57
2021/05/12 12:31:19;;;;;;;1.47;1.10;;;13.70;99.90;;;;;;5074436;28;20451;-57
2021/05/12 12:34:15;;;;;;;1.30;1.20;;;13.60;99.90;;;;;;5073876;28;20999;-57
2021/05/12 12:36:59;;;;;;;1.40;1.30;;;13.60;99.90;;;;;;5073784;28;20525;-57
2021/05/12 12:39:47;;;;;;;2.80;1.20;;;13.70;99.90;;;;;;5059740;28;20922;-55
2021/05/12 12:42:16;;;;;;;1.73;1.60;;;13.80;99.90;;;;;;5073501;28;20572;-55
2021/05/12 12:44:45;;;;;;;1.60;1.50;;;14.00;99.90;;;;;;5073506;28;20534;-57
2021/05/12 12:47:15;;;;;;;2.10;1.80;;;14.00;99.90;;;;;;5073870;28;20447;-58
2021/05/12 12:49:46;;;;;;;2.30;1.57;;;14.00;99.90;;;;;;5074204;28;20443;-57
2021/05/12 12:52:18;;;;;;;1.80;1.70;;;14.10;99.90;;;;;;5073208;28;20463;-57
2021/05/12 12:54:59;;;;;;;1.70;1.60;;;14.20;99.90;;;;;;5073557;28;20451;-57
2021/05/12 12:57:37;;;;;;;3.00;1.97;;;14.10;99.90;;;;;;5073682;28;20493;-57
2021/05/12 13:00:08;;;;;;;4.30;1.90;;;14.20;99.90;;;;;;5073661;28;20534;-57
2021/05/12 13:02:36;;;;;;;1.57;1.40;;;14.20;99.90;;;;;;5096121;22;20501;-51